KILG/ILG METAR and TAF weather

Enter ICAO airport designator
Station Type Date Time Source
KILG METAR 2021/09/20 05:51 UTC NOAA

KILG 200551Z AUTO 03003KT 10SM CLR 16/14 A3026 RMK AO2 SLP245 T01610139 10228 20156 51007 $


Station Type Date Time Source
KILG Decoded METAR 2021/09/20 05:51 UTC NOAA

WILMINGTON NEW CASTLE CO, DE, United States (KILG) 39-40N 075-36W 28M
Sep 20, 2021 - 01:51 AM EDT / 2021.09.20 0551 UTC
Wind: from the NNE (030 degrees) at 3 MPH (3 KT):0
Visibility: 10 mile(s):0
Sky conditions: clear
Temperature: 61.0 F (16.1 C)
Dew Point: 57.0 F (13.9 C)
Relative Humidity: 86%
Pressure (altimeter): 30.26 in. Hg (1024 hPa)
Pressure tendency: 0.02 inches (0.7 hPa) higher than three hours ago
ob: KILG 200551Z AUTO 03003KT 10SM CLR 16/14 A3026 RMK AO2 SLP245 T01610139 10228 20156 51007
cycle: 6

Station Type Date Time Source
KILG TAF 2021/09/20 06:22 UTC NOAA

TAF KILG 200520Z 2006/2106 VRB03KT P6SM SKC
FM201400 12008KT P6SM SCT250
FM210300 09005KT P6SM FEW150

Example: see airport list